createdAt,value
2019-05-11T00:00:35.149Z,92.50
2019-05-11T00:01:35.099Z,92.71
2019-05-11T00:02:35.069Z,92.34
2019-05-11T00:03:35.038Z,92.50
2019-05-11T00:04:35.009Z,92.76
2019-05-11T00:05:35.000Z,92.86
2019-05-11T00:06:34.944Z,92.49
2019-05-11T00:07:34.912Z,92.90
2019-05-11T00:08:34.882Z,92.80
2019-05-11T00:09:35.673Z,93.01
2019-05-11T00:10:35.675Z,93.73
2019-05-11T00:11:34.808Z,93.68
2019-05-11T00:12:34.764Z,93.48
2019-05-11T00:13:34.735Z,94.34
2019-05-11T00:14:34.697Z,94.34
2019-05-11T00:15:34.659Z,94.40
2019-05-11T00:16:34.656Z,94.13
2019-05-11T00:17:34.600Z,94.24
2019-05-11T00:18:34.567Z,94.85
2019-05-11T00:19:34.788Z,94.85
2019-05-11T00:20:34.512Z,95.37
2019-05-11T00:21:34.500Z,95.27
2019-05-11T00:22:35.103Z,95.52
2019-05-11T00:23:34.410Z,95.27
2019-05-11T00:24:34.377Z,95.48
2019-05-11T00:25:34.383Z,95.52
2019-05-11T00:26:34.347Z,95.62
2019-05-11T00:27:34.316Z,95.93
2019-05-11T00:28:34.377Z,95.93
2019-05-11T00:29:34.228Z,95.89
2019-05-11T00:30:34.206Z,95.68
2019-05-11T00:31:41.597Z,95.48
2019-05-11T00:32:34.127Z,95.52
2019-05-11T00:33:34.193Z,95.31
2019-05-11T00:34:34.068Z,95.52
2019-05-11T00:35:34.036Z,95.10
2019-05-11T00:36:34.029Z,95.21
2019-05-11T00:37:33.968Z,95.10
2019-05-11T00:38:33.939Z,95.21
2019-05-11T00:39:33.942Z,95.67
2019-05-11T00:40:33.874Z,95.73
2019-05-11T00:41:33.864Z,95.62
2019-05-11T00:42:33.820Z,95.73
2019-05-11T00:43:33.787Z,95.42
2019-05-11T00:44:33.767Z,95.52
2019-05-11T00:45:34.681Z,95.62
2019-05-11T00:46:33.717Z,95.73
2019-05-11T00:47:33.656Z,95.73
2019-05-11T00:48:33.627Z,95.83
2019-05-11T00:49:33.669Z,95.73
2019-05-11T00:50:39.294Z,95.62
2019-05-11T00:51:33.563Z,95.83
2019-05-11T00:52:33.548Z,95.73
2019-05-11T00:53:33.492Z,95.89
2019-05-11T00:54:33.448Z,96.03
2019-05-11T00:55:33.410Z,95.62
2019-05-11T00:56:33.406Z,95.68
2019-05-11T00:57:33.347Z,95.73
2019-05-11T00:58:33.317Z,96.09
2019-05-11T00:59:33.295Z,95.78
2019-05-11T01:00:33.291Z,95.62
2019-05-11T01:01:33.245Z,95.42
2019-05-11T01:02:33.187Z,95.83
2019-05-11T01:03:33.181Z,95.31
2019-05-11T01:04:33.156Z,95.77
2019-05-11T01:05:33.087Z,95.52
2019-05-11T01:06:33.129Z,95.73
2019-05-11T01:07:33.030Z,95.67
2019-05-11T01:08:32.998Z,95.15
2019-05-11T01:09:32.972Z,95.56
2019-05-11T01:10:41.639Z,95.87
2019-05-11T01:11:32.929Z,95.77
2019-05-11T01:12:32.955Z,95.67
2019-05-11T01:13:34.849Z,96.03
2019-05-11T01:14:34.322Z,96.55
2019-05-11T01:15:34.760Z,96.59
2019-05-11T01:16:34.393Z,96.45
2019-05-11T01:17:34.777Z,96.45
2019-05-11T01:18:34.724Z,96.24
2019-05-11T01:19:35.365Z,96.03
2019-05-11T01:20:33.199Z,96.24
2019-05-11T01:21:33.107Z,96.18
2019-05-11T01:22:36.460Z,95.77
2019-05-11T01:23:33.104Z,95.77
2019-05-11T01:24:32.666Z,95.77
2019-05-11T01:25:32.504Z,95.67
2019-05-11T01:26:34.497Z,95.77
2019-05-11T01:27:33.109Z,95.87
2019-05-11T01:28:33.616Z,95.25
2019-05-11T01:29:35.396Z,95.25
2019-05-11T01:30:32.484Z,95.81
2019-05-11T01:31:34.106Z,95.50
2019-05-11T01:32:33.606Z,95.92
2019-05-11T01:33:36.119Z,95.71
2019-05-11T01:34:35.617Z,95.50
2019-05-11T01:35:33.296Z,95.92
2019-05-11T01:36:35.393Z,95.76
2019-05-11T01:37:32.253Z,95.86
2019-05-11T01:38:33.217Z,95.86
2019-05-11T01:39:32.804Z,95.76
2019-05-11T01:40:37.248Z,95.76
2019-05-11T01:41:34.664Z,95.86
2019-05-11T01:42:33.715Z,96.17
2019-05-11T01:43:31.918Z,96.48
2019-05-11T01:44:32.096Z,96.27
2019-05-11T01:45:32.734Z,96.37
2019-05-11T01:46:32.798Z,97.09
2019-05-11T01:47:40.728Z,96.99
2019-05-11T01:48:31.734Z,97.09
2019-05-11T01:49:31.696Z,97.09
2019-05-11T01:50:31.659Z,96.94
2019-05-11T01:51:31.628Z,97.09
2019-05-11T01:52:31.624Z,97.14
2019-05-11T01:53:31.569Z,97.14
2019-05-11T01:54:31.538Z,96.83
2019-05-11T01:55:31.503Z,97.25
2019-05-11T01:56:31.472Z,97.04
2019-05-11T01:57:31.479Z,96.73
2019-05-11T01:58:31.408Z,97.19
2019-05-11T01:59:31.394Z,97.04
2019-05-11T02:00:31.341Z,96.98
2019-05-11T02:01:31.315Z,96.67
2019-05-11T02:02:31.311Z,97.39
2019-05-11T02:03:31.245Z,97.29
2019-05-11T02:04:31.222Z,97.39
2019-05-11T02:05:31.184Z,97.50
2019-05-11T02:06:31.169Z,97.55
2019-05-11T02:07:31.148Z,97.71
2019-05-11T02:08:31.091Z,97.04
2019-05-11T02:09:31.053Z,97.71
2019-05-11T02:10:31.026Z,97.71
2019-05-11T02:11:31.003Z,97.60
2019-05-11T02:12:30.980Z,97.50
2019-05-11T02:13:30.927Z,97.60
2019-05-11T02:14:30.892Z,97.60
2019-05-11T02:15:30.863Z,97.60
2019-05-11T02:16:30.833Z,97.50
2019-05-11T02:17:30.832Z,97.50
2019-05-11T02:18:30.765Z,97.91
2019-05-11T02:19:30.751Z,97.71
2019-05-11T02:20:30.701Z,97.91
2019-05-11T02:21:30.693Z,98.11
2019-05-11T02:22:30.666Z,98.16
2019-05-11T02:23:30.603Z,97.85
2019-05-11T02:24:30.570Z,98.16
2019-05-11T02:25:30.551Z,98.16
2019-05-11T02:26:30.507Z,98.06
2019-05-11T02:27:30.501Z,98.11
2019-05-11T02:28:30.451Z,97.96
2019-05-11T02:29:30.411Z,98.16
2019-05-11T02:30:30.377Z,98.43
2019-05-11T02:31:30.352Z,98.22
2019-05-11T02:32:30.331Z,98.53
2019-05-11T02:33:30.279Z,98.22
2019-05-11T02:34:30.246Z,98.32
2019-05-11T02:35:30.230Z,98.53
2019-05-11T02:36:30.185Z,98.43
2019-05-11T02:37:30.174Z,98.22
2019-05-11T02:38:30.113Z,98.32
2019-05-11T02:39:30.094Z,98.47
2019-05-11T02:40:30.059Z,98.53
2019-05-11T02:41:36.344Z,98.47
2019-05-11T02:42:29.991Z,98.37
2019-05-11T02:43:29.984Z,98.27
2019-05-11T02:44:29.935Z,98.06
2019-05-11T02:45:29.892Z,98.68
2019-05-11T02:46:29.867Z,98.16
2019-05-11T02:47:29.842Z,98.01
2019-05-11T02:48:29.825Z,98.16
2019-05-11T02:49:29.768Z,98.57
2019-05-11T02:50:29.735Z,98.68
2019-05-11T02:51:29.698Z,98.68
2019-05-11T02:52:29.714Z,98.37
2019-05-11T02:53:29.757Z,98.47
2019-05-11T02:54:29.601Z,98.53
2019-05-11T02:55:29.571Z,98.57
2019-05-11T02:56:29.537Z,98.84
2019-05-11T02:57:29.504Z,98.94
2019-05-11T02:58:29.498Z,99.25
2019-05-11T02:59:30.079Z,99.25
2019-05-11T03:00:29.405Z,98.63
2019-05-11T03:01:29.381Z,98.94
2019-05-11T03:02:29.346Z,98.94
2019-05-11T03:03:29.385Z,98.69
2019-05-11T03:04:29.286Z,98.90
2019-05-11T03:05:29.264Z,98.90
2019-05-11T03:06:29.210Z,99.10
2019-05-11T03:07:29.186Z,98.85
2019-05-11T03:08:29.187Z,99.06
2019-05-11T03:09:29.128Z,98.85
2019-05-11T03:10:29.087Z,98.54
2019-05-11T03:11:29.055Z,98.91
2019-05-11T03:12:29.023Z,98.91
2019-05-11T03:13:29.039Z,98.60
2019-05-11T03:14:28.961Z,98.80
2019-05-11T03:15:28.935Z,98.91
2019-05-11T03:16:28.902Z,98.80
2019-05-11T03:17:28.950Z,98.70
2019-05-11T03:18:28.869Z,98.70
2019-05-11T03:19:28.797Z,98.86
2019-05-11T03:20:28.775Z,98.66
2019-05-11T03:21:28.842Z,98.86
2019-05-11T03:22:28.705Z,98.66
2019-05-11T03:23:28.704Z,98.50
2019-05-11T03:24:28.642Z,98.50
2019-05-11T03:25:28.632Z,98.71
2019-05-11T03:26:28.615Z,98.71
2019-05-11T03:27:28.573Z,98.50
2019-05-11T03:28:28.548Z,98.50
2019-05-11T03:29:28.489Z,98.50
2019-05-11T03:30:28.463Z,98.82
2019-05-11T03:31:28.433Z,98.77
2019-05-11T03:32:28.441Z,98.46
2019-05-11T03:33:28.413Z,98.46
2019-05-11T03:34:28.334Z,98.88
2019-05-11T03:35:28.309Z,98.15
2019-05-11T03:36:28.270Z,98.30
2019-05-11T03:37:28.235Z,98.25
2019-05-11T03:38:28.228Z,97.85
2019-05-11T03:39:28.171Z,97.43
2019-05-11T03:40:28.148Z,97.23
2019-05-11T03:41:28.115Z,97.33
2019-05-11T03:42:28.076Z,96.77
2019-05-11T03:43:28.072Z,97.02
2019-05-11T03:44:28.012Z,96.88
2019-05-11T03:45:27.984Z,96.77
2019-05-11T03:46:27.949Z,96.88
2019-05-11T03:47:27.931Z,96.46
2019-05-11T03:48:27.925Z,96.97
2019-05-11T03:49:27.859Z,96.52
2019-05-11T03:50:27.834Z,96.83
2019-05-11T03:51:27.801Z,96.62
2019-05-11T03:52:27.763Z,96.62
2019-05-11T03:53:27.766Z,96.93
2019-05-11T03:54:27.700Z,96.83
2019-05-11T03:55:27.680Z,96.72
2019-05-11T03:56:27.637Z,96.62
2019-05-11T03:57:27.612Z,96.06
2019-05-11T03:58:27.585Z,96.17
2019-05-11T03:59:27.575Z,96.27
2019-05-11T04:00:27.545Z,95.55
2019-05-11T04:01:27.495Z,95.34
2019-05-11T04:02:27.452Z,95.81
2019-05-11T04:03:27.440Z,94.99
2019-05-11T04:04:27.419Z,95.20
2019-05-11T04:05:27.367Z,95.20
2019-05-11T04:06:27.341Z,95.30
2019-05-11T04:07:27.300Z,95.30
2019-05-11T04:08:27.289Z,95.36
2019-05-11T04:09:27.267Z,94.84
2019-05-11T04:10:27.238Z,94.23
2019-05-11T04:11:27.184Z,93.82
2019-05-11T04:12:34.551Z,94.18
2019-05-11T04:13:27.145Z,93.61
2019-05-11T04:14:27.128Z,93.57
2019-05-11T04:15:27.077Z,92.95
2019-05-11T04:16:27.030Z,93.26
2019-05-11T04:17:27.037Z,92.91
2019-05-11T04:18:26.982Z,92.80
2019-05-11T04:19:26.960Z,92.29
2019-05-11T04:20:26.934Z,92.14
2019-05-11T04:21:26.910Z,92.08
2019-05-11T04:22:26.847Z,91.84
2019-05-11T04:23:26.816Z,91.84
2019-05-11T04:24:26.824Z,91.69
2019-05-11T04:25:26.764Z,90.67
2019-05-11T04:26:26.730Z,90.26
2019-05-11T04:27:26.691Z,90.16
2019-05-11T04:28:26.738Z,90.36
2019-05-11T04:29:26.682Z,89.95
2019-05-11T04:30:26.689Z,89.23
2019-05-11T04:31:26.577Z,89.03
2019-05-11T04:32:26.547Z,88.72
2019-05-11T04:33:26.513Z,89.43
2019-05-11T04:34:26.510Z,89.54
2019-05-11T04:35:26.460Z,89.03
2019-05-11T04:36:26.424Z,89.33
2019-05-11T04:37:26.416Z,89.39
2019-05-11T04:38:26.370Z,89.43
2019-05-11T04:39:26.365Z,88.88
2019-05-11T04:40:26.314Z,88.88
2019-05-11T04:41:26.300Z,88.57
2019-05-11T04:42:26.254Z,88.78
2019-05-11T04:43:26.220Z,88.37
2019-05-11T04:44:26.212Z,87.65
2019-05-11T04:45:26.157Z,87.24
2019-05-11T04:46:26.125Z,87.04
2019-05-11T04:47:26.098Z,87.34
2019-05-11T04:48:26.071Z,87.14
2019-05-11T04:49:26.060Z,86.93
2019-05-11T04:50:26.007Z,86.93
2019-05-11T04:51:25.984Z,86.83
2019-05-11T04:52:25.950Z,86.83
2019-05-11T04:53:25.970Z,86.28
2019-05-11T04:54:25.923Z,86.22
2019-05-11T04:55:25.857Z,85.66
2019-05-11T04:56:25.832Z,85.25
2019-05-11T04:57:25.801Z,85.25
2019-05-11T04:58:25.787Z,84.50
2019-05-11T04:59:25.771Z,84.60
2019-05-11T05:00:25.725Z,84.77
2019-05-11T05:01:25.679Z,84.05
2019-05-11T05:02:27.326Z,83.33
2019-05-11T05:03:39.746Z,83.09
2019-05-11T05:04:25.617Z,82.37
2019-05-11T05:05:25.563Z,81.82
2019-05-11T05:06:25.535Z,81.96
2019-05-11T05:07:25.509Z,81.96
2019-05-11T05:08:26.457Z,81.45
2019-05-11T05:09:25.540Z,81.62
2019-05-11T05:10:25.416Z,81.48
2019-05-11T05:11:30.393Z,80.42
2019-05-11T05:12:25.355Z,79.46
2019-05-11T05:13:29.301Z,78.91
2019-05-11T05:14:25.298Z,78.27
2019-05-11T05:15:25.295Z,77.25
2019-05-11T05:16:25.247Z,77.34
2019-05-11T05:17:25.208Z,76.73
2019-05-11T05:18:25.181Z,76.77
2019-05-11T05:19:25.152Z,77.28
2019-05-11T05:20:25.145Z,77.18
2019-05-11T05:21:25.114Z,77.42
2019-05-11T05:22:27.964Z,77.22
2019-05-11T05:23:25.033Z,77.62
2019-05-11T05:24:25.001Z,77.42
2019-05-11T05:25:25.005Z,76.67
2019-05-11T05:26:24.948Z,76.97
2019-05-11T05:27:24.921Z,76.73
2019-05-11T05:28:24.892Z,76.43
2019-05-11T05:29:24.856Z,76.43
2019-05-11T05:30:24.863Z,75.88
2019-05-11T05:31:24.801Z,75.27
2019-05-11T05:32:24.778Z,74.55
2019-05-11T05:33:24.763Z,75.51
2019-05-11T05:34:24.724Z,75.00
2019-05-11T05:35:24.723Z,74.96
2019-05-11T05:36:24.736Z,74.96
2019-05-11T05:37:24.822Z,75.88
2019-05-11T05:38:24.635Z,75.68
2019-05-11T05:39:24.591Z,75.07
2019-05-11T05:40:24.572Z,75.57
2019-05-11T05:41:24.518Z,74.25
2019-05-11T05:42:24.499Z,74.35
2019-05-11T05:43:28.349Z,74.35
2019-05-11T05:44:27.531Z,74.25
2019-05-11T05:45:24.431Z,74.15
2019-05-11T05:46:24.377Z,73.91
2019-05-11T05:47:31.172Z,74.42
2019-05-11T05:48:24.325Z,73.71
2019-05-11T05:49:24.295Z,72.89
2019-05-11T05:50:25.290Z,72.65
2019-05-11T05:51:24.236Z,72.21
2019-05-11T05:52:24.209Z,72.89
2019-05-11T05:53:24.184Z,71.97
2019-05-11T05:54:24.151Z,71.77
2019-05-11T05:55:24.151Z,71.33
2019-05-11T05:56:24.098Z,70.89
2019-05-11T05:57:24.075Z,69.67
2019-05-11T05:58:24.076Z,69.64
2019-05-11T05:59:24.024Z,69.43
2019-05-11T06:00:24.011Z,68.38
2019-05-11T06:01:23.960Z,68.35
2019-05-11T06:02:23.949Z,68.18
2019-05-11T06:03:23.916Z,67.36
2019-05-11T06:04:23.875Z,67.94
2019-05-11T06:05:23.875Z,68.15
2019-05-11T06:06:23.845Z,67.50
2019-05-11T06:07:23.840Z,67.30
2019-05-11T06:08:23.835Z,67.30
2019-05-11T06:09:23.761Z,67.71
2019-05-11T06:10:23.740Z,67.61
2019-05-11T06:11:23.707Z,67.30
2019-05-11T06:12:23.670Z,66.08
2019-05-11T06:13:23.635Z,66.97
2019-05-11T06:14:23.629Z,66.16
2019-05-11T06:15:23.631Z,65.72
2019-05-11T06:16:23.567Z,65.75
2019-05-11T06:17:23.547Z,65.58
2019-05-11T06:18:23.535Z,65.91
2019-05-11T06:19:23.496Z,66.22
2019-05-11T06:20:23.508Z,66.63
2019-05-11T06:21:24.438Z,66.02
2019-05-11T06:22:23.426Z,66.15
2019-05-11T06:23:23.402Z,67.19
2019-05-11T06:24:23.378Z,66.99
2019-05-11T06:25:23.402Z,67.83
2019-05-11T06:26:23.379Z,68.04
2019-05-11T06:27:23.359Z,68.27
2019-05-11T06:28:23.363Z,68.85
2019-05-11T06:29:23.220Z,68.44
2019-05-11T06:30:23.193Z,69.06
2019-05-11T06:31:23.196Z,68.96
2019-05-11T06:32:23.145Z,68.55
2019-05-11T06:33:23.107Z,68.85
2019-05-11T06:34:23.082Z,67.94
2019-05-11T06:35:23.057Z,68.14
2019-05-11T06:36:23.054Z,68.35
2019-05-11T06:37:23.032Z,68.24
2019-05-11T06:38:22.989Z,68.41
2019-05-11T06:39:22.951Z,67.97
2019-05-11T06:40:22.943Z,68.38
2019-05-11T06:41:22.922Z,68.08
2019-05-11T06:42:22.872Z,67.13
2019-05-11T06:43:22.847Z,67.16
2019-05-11T06:44:22.816Z,66.83
2019-05-11T06:45:22.789Z,67.06
2019-05-11T06:46:22.788Z,66.72
2019-05-11T06:47:22.737Z,66.90
2019-05-11T06:48:22.711Z,65.85
2019-05-11T06:49:22.684Z,65.88
2019-05-11T06:50:22.655Z,65.88
2019-05-11T06:51:22.651Z,65.95
2019-05-11T06:52:22.599Z,66.05
2019-05-11T06:53:22.575Z,65.82
2019-05-11T06:54:22.561Z,65.39
2019-05-11T06:55:22.526Z,64.37
2019-05-11T06:56:22.532Z,63.56
2019-05-11T06:57:22.482Z,63.66
2019-05-11T06:58:22.444Z,63.63
2019-05-11T06:59:22.426Z,62.52
2019-05-11T07:00:22.400Z,61.94
2019-05-11T07:01:22.399Z,62.54
2019-05-11T07:02:22.341Z,62.72
2019-05-11T07:03:22.322Z,62.65
2019-05-11T07:04:22.290Z,62.65
2019-05-11T07:05:22.267Z,62.75
2019-05-11T07:06:25.753Z,62.65
2019-05-11T07:07:22.208Z,62.69
2019-05-11T07:08:22.182Z,62.18
2019-05-11T07:09:22.189Z,61.24
2019-05-11T07:10:22.140Z,61.65
2019-05-11T07:11:22.144Z,61.11
2019-05-11T07:12:22.224Z,60.68
2019-05-11T07:13:22.062Z,60.17
2019-05-11T07:14:22.035Z,59.64
2019-05-11T07:15:22.009Z,59.23
2019-05-11T07:16:22.022Z,59.77
2019-05-11T07:17:21.966Z,59.23
2019-05-11T07:18:21.931Z,59.03
2019-05-11T07:19:21.913Z,58.43
2019-05-11T07:20:21.883Z,59.84
2019-05-11T07:21:21.881Z,59.23
2019-05-11T07:22:21.842Z,59.23
2019-05-11T07:23:21.807Z,59.21
2019-05-11T07:24:21.792Z,59.27
2019-05-11T07:25:21.766Z,59.29
2019-05-11T07:26:21.757Z,59.90
2019-05-11T07:27:21.722Z,59.92
2019-05-11T07:28:21.687Z,60.61
2019-05-11T07:29:21.673Z,60.58
2019-05-11T07:30:21.692Z,59.19
2019-05-11T07:31:21.638Z,59.70
2019-05-11T07:32:25.783Z,59.52
2019-05-11T07:33:21.566Z,60.16
2019-05-11T07:34:21.543Z,60.03
2019-05-11T07:35:21.518Z,59.42
2019-05-11T07:36:21.487Z,59.32
2019-05-11T07:37:24.256Z,58.92
2019-05-11T07:38:21.438Z,58.71
2019-05-11T07:39:21.410Z,58.51
2019-05-11T07:40:21.397Z,59.42
2019-05-11T07:41:21.371Z,59.22
2019-05-11T07:42:21.369Z,58.03
2019-05-11T07:43:21.319Z,60.06
2019-05-11T07:44:34.964Z,59.85
2019-05-11T07:45:21.268Z,59.42
2019-05-11T07:46:21.247Z,57.80
2019-05-11T07:47:21.252Z,59.42
2019-05-11T07:48:21.199Z,58.61
2019-05-11T07:49:23.413Z,58.58
2019-05-11T07:50:21.144Z,58.07
2019-05-11T07:51:21.125Z,57.47
2019-05-11T07:52:21.116Z,57.98
2019-05-11T07:53:28.790Z,58.07
2019-05-11T07:54:21.164Z,57.67
2019-05-11T07:55:21.020Z,59.19
2019-05-11T07:56:20.987Z,57.34
2019-05-11T07:57:20.988Z,56.02
2019-05-11T07:58:20.942Z,55.73
2019-05-11T07:59:20.911Z,56.36
2019-05-11T08:00:20.946Z,56.33
2019-05-11T08:01:20.871Z,56.10
2019-05-11T08:02:20.863Z,55.49
2019-05-11T08:03:20.813Z,55.77
2019-05-11T08:04:21.714Z,55.57
2019-05-11T08:05:20.775Z,55.34
2019-05-11T08:06:20.741Z,55.72
2019-05-11T08:07:20.734Z,54.68
2019-05-11T08:08:20.700Z,53.67
2019-05-11T08:09:20.667Z,52.06
2019-05-11T08:10:20.682Z,52.36
2019-05-11T08:11:20.616Z,53.09
2019-05-11T08:12:20.627Z,53.60
2019-05-11T08:13:20.572Z,53.58
2019-05-11T08:14:20.551Z,53.25
2019-05-11T08:15:20.519Z,52.92
2019-05-11T08:16:20.498Z,51.99
2019-05-11T08:17:20.508Z,53.07
2019-05-11T08:18:20.454Z,51.03
2019-05-11T08:19:20.433Z,50.33
2019-05-11T08:20:20.404Z,50.40
2019-05-11T08:21:20.433Z,50.00
2019-05-11T08:22:22.873Z,50.25
2019-05-11T08:23:20.337Z,51.23
2019-05-11T08:24:20.314Z,50.23
2019-05-11T08:25:20.295Z,49.85
2019-05-11T08:26:20.277Z,49.75
2019-05-11T08:27:20.280Z,49.12
2019-05-11T08:28:20.256Z,49.60
2019-05-11T08:29:20.201Z,49.07
2019-05-11T08:30:20.182Z,48.17
2019-05-11T08:31:20.169Z,48.25
2019-05-11T08:32:20.159Z,47.04
2019-05-11T08:33:20.117Z,46.94
2019-05-11T08:34:20.095Z,47.22
2019-05-11T08:35:20.072Z,47.22
2019-05-11T08:36:20.047Z,46.81
2019-05-11T08:37:20.053Z,47.09
2019-05-11T08:38:20.005Z,46.01
2019-05-11T08:39:19.994Z,46.86
2019-05-11T08:40:19.963Z,47.28
2019-05-11T08:41:19.939Z,47.19
2019-05-11T08:42:19.917Z,47.04
2019-05-11T08:43:19.931Z,47.24
2019-05-11T08:44:19.878Z,47.32
2019-05-11T08:45:24.020Z,46.29
2019-05-11T08:46:19.835Z,45.87
2019-05-11T08:47:19.887Z,44.38
2019-05-11T08:48:19.814Z,44.51
2019-05-11T08:49:19.783Z,46.36
2019-05-11T08:50:19.765Z,45.81
2019-05-11T08:51:19.728Z,46.01
2019-05-11T08:52:19.710Z,45.91
2019-05-11T08:53:19.711Z,46.11
2019-05-11T08:54:19.667Z,45.61
2019-05-11T08:55:20.304Z,46.14
2019-05-11T08:56:19.623Z,47.64
2019-05-11T08:57:19.611Z,47.16
2019-05-11T08:58:19.750Z,47.24
2019-05-11T08:59:19.557Z,46.41
2019-05-11T09:00:19.544Z,46.03
2019-05-11T09:01:19.525Z,46.73
2019-05-11T09:02:19.498Z,46.15
2019-05-11T09:03:19.510Z,46.66
2019-05-11T09:04:19.456Z,46.36
2019-05-11T09:05:19.456Z,46.38
2019-05-11T09:06:19.426Z,46.91
2019-05-11T09:07:19.402Z,46.40
2019-05-11T09:08:19.399Z,46.91
2019-05-11T09:09:19.349Z,47.61
2019-05-11T09:10:19.405Z,46.48
2019-05-11T09:11:19.372Z,47.61
2019-05-11T09:12:19.290Z,46.60
2019-05-11T09:13:19.298Z,47.41
2019-05-11T09:14:19.242Z,47.39
2019-05-11T09:15:32.465Z,46.96
2019-05-11T09:16:19.298Z,47.66
2019-05-11T09:17:19.192Z,46.86
2019-05-11T09:18:19.181Z,46.06
2019-05-11T09:19:19.140Z,45.95
2019-05-11T09:20:19.215Z,46.26
2019-05-11T09:21:19.289Z,46.15
2019-05-11T09:22:19.176Z,45.65
2019-05-11T09:23:33.575Z,46.76
2019-05-11T09:24:19.107Z,44.95
2019-05-11T09:25:19.007Z,46.18
2019-05-11T09:26:18.985Z,46.20
2019-05-11T09:27:18.969Z,46.68
2019-05-11T09:28:18.969Z,47.20
2019-05-11T09:29:18.936Z,46.58
2019-05-11T09:30:18.897Z,46.58
2019-05-11T09:31:19.022Z,46.28
2019-05-11T09:32:18.859Z,46.78
2019-05-11T09:33:20.732Z,46.06
2019-05-11T09:34:18.832Z,45.95
2019-05-11T09:35:19.203Z,44.75
2019-05-11T09:36:18.844Z,45.78
2019-05-11T09:37:18.748Z,45.67
2019-05-11T09:38:18.757Z,45.70
2019-05-11T09:39:18.707Z,46.62
2019-05-11T09:40:18.700Z,47.53
2019-05-11T09:41:18.682Z,47.03
2019-05-11T09:42:18.638Z,46.70
2019-05-11T09:43:18.642Z,46.60
2019-05-11T09:44:18.596Z,46.22
2019-05-11T09:45:18.972Z,46.93
2019-05-11T09:46:18.985Z,46.50
2019-05-11T09:47:19.052Z,45.59
2019-05-11T09:48:18.535Z,44.61
2019-05-11T09:49:18.714Z,45.19
2019-05-11T09:50:18.519Z,45.09
2019-05-11T09:51:18.697Z,44.79
2019-05-11T09:52:18.527Z,44.57
2019-05-11T09:53:18.404Z,45.09
2019-05-11T09:54:18.455Z,45.59
2019-05-11T09:55:19.010Z,45.39
2019-05-11T09:56:18.623Z,46.20
2019-05-11T09:57:18.574Z,45.78
2019-05-11T09:58:19.764Z,44.67
2019-05-11T09:59:18.294Z,44.47
2019-05-11T10:00:18.244Z,45.78
2019-05-11T10:01:18.560Z,44.37
2019-05-11T10:02:20.959Z,45.37
2019-05-11T10:03:18.858Z,44.55
2019-05-11T10:04:18.285Z,44.93
2019-05-11T10:05:18.969Z,44.23
2019-05-11T10:06:18.929Z,43.34
2019-05-11T10:07:18.299Z,43.22
2019-05-11T10:08:18.389Z,43.32
2019-05-11T10:09:19.247Z,43.02
2019-05-11T10:10:18.840Z,43.20
2019-05-11T10:11:18.979Z,44.10
2019-05-11T10:12:18.227Z,43.32
2019-05-11T10:13:18.571Z,43.90
2019-05-11T10:14:18.784Z,42.78
2019-05-11T10:15:18.736Z,43.80
2019-05-11T10:16:18.169Z,43.18
2019-05-11T10:17:18.302Z,43.98
2019-05-11T10:18:18.630Z,43.28
2019-05-11T10:19:18.085Z,42.97
2019-05-11T10:20:18.322Z,43.50
2019-05-11T10:21:18.967Z,42.07
2019-05-11T10:22:18.562Z,42.18
2019-05-11T10:23:18.558Z,41.55
2019-05-11T10:24:17.916Z,40.77
2019-05-11T10:25:18.281Z,41.49
2019-05-11T10:26:18.695Z,42.33
2019-05-11T10:27:18.922Z,43.28
2019-05-11T10:28:17.986Z,43.66
2019-05-11T10:29:18.314Z,43.04
2019-05-11T10:30:18.599Z,42.82
2019-05-11T10:31:18.233Z,43.50
2019-05-11T10:32:18.267Z,42.80
2019-05-11T10:33:18.822Z,41.79
2019-05-11T10:34:18.106Z,41.69
2019-05-11T10:35:18.399Z,42.10
2019-05-11T10:36:18.854Z,42.10
2019-05-11T10:37:17.773Z,41.21
2019-05-11T10:38:17.945Z,42.82
2019-05-11T10:39:18.603Z,43.10
2019-05-11T10:40:18.984Z,43.62
2019-05-11T10:41:18.083Z,43.02
2019-05-11T10:42:17.989Z,42.32
2019-05-11T10:43:18.367Z,42.60
2019-05-11T10:44:18.749Z,42.30
2019-05-11T10:45:18.036Z,42.49
2019-05-11T10:46:22.980Z,41.29
2019-05-11T10:47:18.479Z,42.40
2019-05-11T10:48:17.831Z,42.80
2019-05-11T10:49:18.465Z,41.69
2019-05-11T10:50:18.762Z,41.29
2019-05-11T10:51:18.327Z,42.60
2019-05-11T10:52:17.984Z,43.22
2019-05-11T10:53:18.490Z,42.44
2019-05-11T10:54:18.705Z,43.44
2019-05-11T10:55:19.309Z,42.84
2019-05-11T10:56:17.850Z,43.34
2019-05-11T10:57:18.886Z,43.54
2019-05-11T10:58:18.322Z,42.72
2019-05-11T10:59:18.729Z,43.52
2019-05-11T11:00:17.793Z,42.74
2019-05-11T11:01:18.233Z,43.34
2019-05-11T11:02:18.516Z,42.82
2019-05-11T11:03:17.880Z,42.41
2019-05-11T11:04:18.402Z,41.13
2019-05-11T11:05:18.773Z,42.46
2019-05-11T11:06:18.864Z,43.06
2019-05-11T11:07:19.317Z,42.96
2019-05-11T11:08:18.530Z,42.94
2019-05-11T11:09:17.802Z,43.74
2019-05-11T11:10:18.140Z,42.74
2019-05-11T11:11:18.539Z,42.74
2019-05-11T11:12:18.704Z,43.24
2019-05-11T11:13:18.749Z,43.14
2019-05-11T11:14:18.096Z,43.02
2019-05-11T11:15:18.324Z,43.02
2019-05-11T11:16:34.669Z,43.82
2019-05-11T11:17:18.928Z,43.00
2019-05-11T11:18:18.767Z,43.76
2019-05-11T11:19:18.323Z,44.39
2019-05-11T11:20:18.632Z,43.51
2019-05-11T11:21:22.400Z,45.42
2019-05-11T11:22:35.454Z,44.61
2019-05-11T11:23:17.727Z,44.71
2019-05-11T11:24:17.955Z,45.42
2019-05-11T11:25:17.998Z,46.22
2019-05-11T11:26:18.407Z,46.80
2019-05-11T11:27:18.088Z,48.29
2019-05-11T11:28:17.551Z,44.27
2019-05-11T11:29:17.858Z,44.57
2019-05-11T11:30:18.115Z,44.57
2019-05-11T11:31:18.390Z,44.57
2019-05-11T11:32:18.264Z,45.75
2019-05-11T11:33:18.210Z,44.75
2019-05-11T11:34:18.578Z,44.87
2019-05-11T11:35:18.505Z,46.58
2019-05-11T11:36:17.950Z,46.38
2019-05-11T11:37:17.525Z,46.56
2019-05-11T11:38:18.055Z,44.79
2019-05-11T11:39:16.125Z,46.10
2019-05-11T11:40:17.725Z,44.69
2019-05-11T11:41:17.878Z,44.67
2019-05-11T11:42:17.898Z,44.77
2019-05-11T11:43:18.038Z,43.73
2019-05-11T11:44:18.321Z,45.76
2019-05-11T11:45:18.119Z,47.22
2019-05-11T11:46:15.976Z,46.31
2019-05-11T11:47:20.981Z,47.02
2019-05-11T11:48:15.984Z,48.93
2019-05-11T11:49:15.945Z,47.24
2019-05-11T11:50:17.804Z,48.35
2019-05-11T11:51:18.411Z,47.12
2019-05-11T11:52:15.848Z,47.64
2019-05-11T11:53:15.825Z,49.04
2019-05-11T11:54:17.962Z,49.72
2019-05-11T11:55:15.793Z,47.47
2019-05-11T11:56:15.743Z,47.35
2019-05-11T11:57:18.060Z,47.13
2019-05-11T11:58:20.123Z,46.73
2019-05-11T11:59:17.684Z,46.50
2019-05-11T12:00:18.125Z,45.37
2019-05-11T12:01:15.658Z,46.96
2019-05-11T12:02:15.617Z,45.95
2019-05-11T12:03:15.586Z,44.49
2019-05-11T12:04:15.568Z,45.00
2019-05-11T12:05:17.538Z,47.69
2019-05-11T12:06:17.957Z,44.67
2019-05-11T12:07:17.760Z,46.56
2019-05-11T12:08:15.542Z,46.34
2019-05-11T12:09:18.018Z,46.11
2019-05-11T12:10:15.434Z,44.31
2019-05-11T12:11:15.435Z,45.25
2019-05-11T12:12:15.392Z,44.69
2019-05-11T12:13:15.368Z,47.63
2019-05-11T12:14:15.345Z,47.43
2019-05-11T12:15:17.618Z,46.73
2019-05-11T12:16:17.763Z,47.75
2019-05-11T12:17:15.278Z,47.35
2019-05-11T12:18:15.256Z,47.43
2019-05-11T12:19:15.242Z,46.65
2019-05-11T12:20:15.215Z,47.55
2019-05-11T12:21:15.214Z,47.17
2019-05-11T12:22:15.170Z,47.07
2019-05-11T12:23:15.146Z,47.30
2019-05-11T12:24:15.126Z,49.13
2019-05-11T12:25:15.105Z,48.22
2019-05-11T12:26:17.527Z,47.62
2019-05-11T12:27:15.060Z,49.05
2019-05-11T12:28:15.038Z,49.36
2019-05-11T12:29:15.015Z,50.80
2019-05-11T12:30:14.992Z,51.83
2019-05-11T12:31:14.997Z,53.14
2019-05-11T12:32:14.944Z,50.82
2019-05-11T12:33:14.920Z,50.62
2019-05-11T12:34:14.899Z,49.79
2019-05-11T12:35:14.877Z,50.32
2019-05-11T12:36:14.877Z,50.62
2019-05-11T12:37:14.835Z,50.82
2019-05-11T12:38:14.808Z,50.72
2019-05-11T12:39:14.785Z,50.95
2019-05-11T12:40:14.759Z,52.97
2019-05-11T12:41:14.765Z,51.45
2019-05-11T12:42:14.710Z,52.87
2019-05-11T12:43:14.690Z,53.50
2019-05-11T12:44:14.661Z,53.93
2019-05-11T12:45:14.644Z,55.44
2019-05-11T12:46:14.642Z,56.13
2019-05-11T12:47:22.191Z,55.32
2019-05-11T12:48:14.570Z,56.18
2019-05-11T12:49:14.542Z,56.89
2019-05-11T12:50:14.517Z,57.75
2019-05-11T12:51:14.578Z,58.59
2019-05-11T12:52:14.471Z,60.14